Weather at Kurgannoye Airstrip [CLOSED]

Public forecast

Using degrees Celsius for public forecast. Weather courtesy of forecast.io.

Closest aviation weather report (METAR) to Kurgannoye Airstrip

Closest report is Anapa Vityazevo Airport, 161.7 nm (299.5 km) ESE.

2024/07/20 19:00 (retrieved 15 minutes ago)

URKA 201900Z 09007MPS 060V120 9999 TS SCT///CB 22/19 Q1008 R03/010070 TEMPO VRB10G19MPS 0500 +TSRAGR SCT005 BKN020CB RMK QFE752/1003

Closest aviation forecast (TAF) to Kurgannoye Airstrip

Closest forecast is Anapa Vityazevo Airport, 161.7 nm (299.5 km) ESE.

2024/07/20 18:21 (retrieved 54 minutes ago)

TAF TAF URKA 201651Z 2018/2118 06003G08MPS 9999 SCT030CB TEMPO 2018/2024 10008G17MPS 6000 -TSRAGR BKN016CB FM210000 09003G08MPS CAVOK FM210600 23003G08MPS 9999 SCT040CB TEMPO 2106/2118 26006G13MPS